Time;durP1;ratioP1;P1;durP2;ratioP2;P2;SDS_P1;SDS_P2;PMS_P1;PMS_P2;Temp;Humidity;BMP_temperature;BMP_pressure;BME280_temperature;BME280_humidity;BME280_pressure;Samples;Min_cycle;Max_cycle;Signal;HPM_P1;HPM_P2
2022/06/11 00:02:20;;;;;;;18.75;16.70;;;18.30;99.90;;;;;;4981362;28;20034;-84
2022/06/11 00:04:45;;;;;;;18.48;15.05;;;18.30;99.90;;;;;;4974098;28;20512;-84
2022/06/11 00:07:15;;;;;;;18.95;17.02;;;18.30;99.90;;;;;;4957757;28;20042;-84
2022/06/11 00:09:42;;;;;;;18.02;16.27;;;18.30;99.90;;;;;;4954340;28;20133;-84
2022/06/11 00:12:09;;;;;;;19.95;17.90;;;18.30;99.90;;;;;;4949381;28;20098;-84
2022/06/11 00:14:35;;;;;;;18.40;16.45;;;18.30;99.90;;;;;;4972487;28;20050;-84
2022/06/11 00:17:05;;;;;;;18.98;16.80;;;18.30;99.90;;;;;;4955837;28;20551;-84
2022/06/11 00:19:31;;;;;;;19.90;17.52;;;18.20;99.90;;;;;;4973197;28;20034;-84
2022/06/11 00:21:57;;;;;;;19.27;17.25;;;18.20;99.90;;;;;;4967981;28;20495;-84
2022/06/11 00:24:25;;;;;;;19.33;17.23;;;18.10;99.90;;;;;;5053260;28;20036;-84
2022/06/11 00:26:52;;;;;;;22.02;17.50;;;18.10;99.90;;;;;;5050250;28;20040;-84
2022/06/11 00:29:20;;;;;;;20.90;18.63;;;18.10;99.90;;;;;;5031649;28;20485;-84
2022/06/11 00:31:46;;;;;;;20.27;18.17;;;18.00;99.90;;;;;;5034813;28;20075;-84
2022/06/11 00:34:12;;;;;;;19.75;17.73;;;18.00;99.90;;;;;;5050836;28;20045;-84
2022/06/11 00:36:38;;;;;;;18.75;16.83;;;18.00;99.90;;;;;;5036239;28;20489;-84
2022/06/11 00:39:08;;;;;;;22.88;18.45;;;18.00;99.90;;;;;;5050924;28;20041;-84
2022/06/11 00:41:37;;;;;;;19.50;17.25;;;18.00;99.90;;;;;;5050553;28;20033;-84
2022/06/11 00:44:04;;;;;;;19.45;16.13;;;18.00;99.90;;;;;;5050372;28;20036;-84
2022/06/11 00:47:01;;;;;;;20.58;17.25;;;17.90;99.90;;;;;;5052519;28;20037;-84
2022/06/11 00:49:34;;;;;;;16.85;14.32;;;17.90;99.90;;;;;;5050332;28;20032;-83
2022/06/11 00:52:21;;;;;;;20.13;13.35;;;17.90;99.90;;;;;;5051259;28;20044;-84
2022/06/11 00:55:05;;;;;;;17.02;14.50;;;17.80;99.90;;;;;;5053309;28;20119;-84
2022/06/11 00:57:36;;;;;;;15.93;14.15;;;17.80;99.90;;;;;;5017623;28;20056;-84
2022/06/11 01:00:09;;;;;;;14.80;12.75;;;17.80;99.90;;;;;;5032929;28;20532;-84
2022/06/11 01:02:37;;;;;;;17.23;13.40;;;17.70;99.90;;;;;;5030362;28;20032;-84
2022/06/11 01:05:04;;;;;;;14.32;12.52;;;17.70;99.90;;;;;;5053502;28;20063;-84
2022/06/11 01:07:46;;;;;;;14.63;12.27;;;17.70;99.90;;;;;;5036155;28;20032;-84
2022/06/11 01:10:23;;;;;;;15.65;11.73;;;17.60;99.90;;;;;;5052683;28;20042;-85
2022/06/11 01:13:12;;;;;;;17.17;11.70;;;17.60;99.90;;;;;;5037074;28;20068;-84
2022/06/11 01:15:51;;;;;;;15.85;9.70;;;17.50;99.90;;;;;;5052631;28;20040;-84
2022/06/11 01:18:28;;;;;;;15.50;10.77;;;17.40;99.90;;;;;;5053649;28;20379;-84
2022/06/11 01:21:29;;;;;;;16.40;10.52;;;17.40;99.90;;;;;;5051897;28;20071;-84
2022/06/11 01:24:18;;;;;;;15.23;11.82;;;17.30;99.90;;;;;;5036706;28;20032;-84
2022/06/11 01:27:05;;;;;;;14.20;9.77;;;17.20;99.90;;;;;;5035510;28;20052;-84
2022/06/11 01:29:41;;;;;;;16.55;12.55;;;17.20;99.90;;;;;;5035960;28;20530;-84
2022/06/11 01:32:11;;;;;;;16.52;10.27;;;17.20;99.90;;;;;;5036283;28;20028;-84
2022/06/11 01:34:48;;;;;;;16.73;11.85;;;17.10;99.90;;;;;;5036137;28;20119;-84
2022/06/11 01:37:27;;;;;;;13.55;9.77;;;17.10;99.90;;;;;;5053060;28;20032;-84
2022/06/11 01:40:05;;;;;;;15.70;13.10;;;17.00;99.90;;;;;;5051613;28;20036;-84
2022/06/11 01:42:42;;;;;;;19.15;12.40;;;17.00;99.90;;;;;;5053356;28;20049;-84
2022/06/11 01:45:13;;;;;;;18.45;12.75;;;17.00;99.90;;;;;;5052323;28;20037;-84
2022/06/11 01:47:40;;;;;;;14.45;9.70;;;17.00;99.90;;;;;;5052597;28;20044;-84
2022/06/11 01:50:07;;;;;;;16.00;12.73;;;17.00;99.90;;;;;;5035826;28;20037;-84
2022/06/11 01:53:00;;;;;;;18.80;14.70;;;17.00;99.90;;;;;;5035633;28;20033;-84
2022/06/11 01:55:52;;;;;;;16.85;12.05;;;17.00;99.90;;;;;;5033101;28;20037;-84
2022/06/11 01:58:24;;;;;;;17.80;11.15;;;17.00;99.90;;;;;;5025578;28;20048;-84
2022/06/11 02:01:20;;;;;;;17.35;12.23;;;16.90;99.90;;;;;;5053350;28;20481;-84
2022/06/11 02:04:05;;;;;;;17.95;12.02;;;16.90;99.90;;;;;;5056374;28;20044;-84
2022/06/11 02:06:54;;;;;;;19.30;16.77;;;16.90;99.90;;;;;;5036447;28;20044;-84
2022/06/11 02:09:40;;;;;;;17.85;15.10;;;16.90;99.90;;;;;;5036549;28;20033;-84
2022/06/11 02:12:25;;;;;;;15.88;12.18;;;16.90;99.90;;;;;;5050263;28;20055;-84
2022/06/11 02:15:13;;;;;;;18.77;15.07;;;16.80;99.90;;;;;;5056352;28;20049;-84
2022/06/11 02:17:42;;;;;;;17.42;13.35;;;16.70;99.90;;;;;;5056036;28;20040;-84
2022/06/11 02:20:19;;;;;;;19.13;15.88;;;16.60;99.90;;;;;;5039470;28;20036;-84
2022/06/11 02:23:02;;;;;;;19.38;17.00;;;16.70;99.90;;;;;;5038774;28;20037;-84
2022/06/11 02:25:51;;;;;;;;;;;16.70;99.90;;;;;;5056923;28;20044;-84
2022/06/11 02:28:23;;;;;;;21.45;12.63;;;16.60;99.90;;;;;;5049601;28;19923;-84
2022/06/11 02:30:51;;;;;;;16.45;12.20;;;16.60;99.90;;;;;;5055840;28;20493;-84
2022/06/11 02:33:18;;;;;;;19.35;15.70;;;16.60;99.90;;;;;;5056003;28;20037;-84
2022/06/11 02:35:50;;;;;;;20.17;16.92;;;16.60;99.90;;;;;;5055311;28;20516;-84
2022/06/11 02:38:19;;;;;;;18.87;15.47;;;16.70;99.90;;;;;;5054891;28;20507;-83
2022/06/11 02:40:57;;;;;;;18.98;15.85;;;16.70;99.90;;;;;;5037884;28;20044;-84
2022/06/11 02:43:23;;;;;;;16.60;14.82;;;16.60;99.90;;;;;;5055492;28;20040;-84
2022/06/11 02:45:49;;;;;;;19.83;12.95;;;16.60;99.90;;;;;;5038596;28;20405;-84
2022/06/11 02:48:15;;;;;;;20.58;12.88;;;16.50;99.90;;;;;;5054894;28;20497;-84
2022/06/11 02:50:42;;;;;;;17.55;15.38;;;16.50;99.90;;;;;;5038294;28;20047;-84
2022/06/11 02:53:10;;;;;;;18.75;13.32;;;16.50;99.90;;;;;;5054439;28;20033;-84
2022/06/11 02:55:37;;;;;;;17.40;11.98;;;16.40;99.90;;;;;;5055405;28;20040;-84
2022/06/11 02:58:05;;;;;;;16.95;15.15;;;16.40;99.90;;;;;;5065648;28;20508;-84
2022/06/11 03:00:34;;;;;;;16.65;14.25;;;16.40;99.90;;;;;;5035130;28;20274;-84
2022/06/11 03:03:01;;;;;;;16.75;11.95;;;16.40;99.90;;;;;;5037341;28;20040;-84
2022/06/11 03:05:30;;;;;;;19.05;14.23;;;16.30;99.90;;;;;;5037706;28;20040;-83
2022/06/11 03:07:57;;;;;;;17.42;13.43;;;16.30;99.90;;;;;;5055127;28;20051;-84
2022/06/11 03:10:24;;;;;;;18.00;14.13;;;16.30;99.90;;;;;;5037938;28;20111;-84
2022/06/11 03:12:50;;;;;;;16.75;10.10;;;16.20;99.90;;;;;;5038510;28;20033;-83
2022/06/11 03:15:18;;;;;;;16.27;12.73;;;16.20;99.90;;;;;;5054384;28;20470;-84
2022/06/11 03:17:45;;;;;;;15.15;11.07;;;16.10;99.90;;;;;;5055222;28;20113;-84
2022/06/11 03:20:12;;;;;;;17.67;11.05;;;16.10;99.90;;;;;;5053558;28;20078;-84
2022/06/11 03:22:38;;;;;;;14.40;8.20;;;16.10;99.90;;;;;;5054893;28;20124;-84
2022/06/11 03:25:05;;;;;;;14.48;8.45;;;16.00;99.90;;;;;;5055229;28;20045;-84
2022/06/11 03:27:31;;;;;;;15.50;11.65;;;15.90;99.90;;;;;;5053743;28;20056;-84
2022/06/11 03:29:56;;;;;;;14.70;8.88;;;15.90;99.90;;;;;;5037931;28;20497;-84
2022/06/11 03:32:22;;;;;;;13.68;9.85;;;15.90;99.90;;;;;;5054541;28;20047;-84
2022/06/11 03:34:48;;;;;;;14.73;10.63;;;15.80;99.90;;;;;;5053365;28;20071;-84
2022/06/11 03:37:14;;;;;;;12.15;7.80;;;15.80;99.90;;;;;;5054805;28;20363;-83
2022/06/11 03:39:40;;;;;;;12.85;8.68;;;15.80;99.90;;;;;;5037135;28;20454;-84
2022/06/11 03:42:06;;;;;;;12.48;7.43;;;15.80;99.90;;;;;;5038117;28;20123;-84
2022/06/11 03:44:33;;;;;;;13.98;8.05;;;15.80;99.90;;;;;;5037221;28;20032;-84
2022/06/11 03:46:58;;;;;;;13.20;6.05;;;15.80;99.90;;;;;;5054095;28;20040;-85
2022/06/11 03:49:24;;;;;;;12.35;7.25;;;15.80;99.90;;;;;;5054077;28;20619;-84
2022/06/11 03:51:51;;;;;;;15.57;7.43;;;15.80;99.90;;;;;;5036746;28;20032;-84
2022/06/11 03:54:17;;;;;;;12.77;6.95;;;15.80;99.90;;;;;;5054769;28;20401;-84
2022/06/11 03:56:44;;;;;;;10.10;5.35;;;15.80;99.90;;;;;;5037216;28;20472;-84
2022/06/11 03:59:10;;;;;;;11.82;6.60;;;15.70;99.90;;;;;;5053140;28;20494;-84
2022/06/11 04:01:37;;;;;;;14.02;6.90;;;15.70;99.90;;;;;;5054295;28;20037;-83
2022/06/11 04:04:10;;;;;;;11.77;6.70;;;15.70;99.90;;;;;;5036422;28;20036;-84
2022/06/11 04:06:39;;;;;;;14.43;6.35;;;15.70;99.90;;;;;;5037629;28;20040;-84
2022/06/11 04:09:10;;;;;;;13.05;5.20;;;15.80;99.90;;;;;;5035924;28;20490;-84
2022/06/11 04:11:36;;;;;;;12.60;6.75;;;15.70;99.90;;;;;;5053760;28;20485;-84
2022/06/11 04:14:02;;;;;;;12.00;6.07;;;15.70;99.90;;;;;;5036945;28;20074;-84
2022/06/11 04:16:42;;;;;;;15.23;4.95;;;15.80;99.90;;;;;;5053675;28;20070;-84
2022/06/11 04:19:11;;;;;;;13.90;4.40;;;15.70;99.90;;;;;;5036035;28;20082;-84
2022/06/11 04:21:37;;;;;;;12.82;6.20;;;15.70;99.90;;;;;;5036794;28;20036;-84
2022/06/11 04:24:04;;;;;;;14.13;5.10;;;15.70;99.90;;;;;;5037047;28;20043;-84
2022/06/11 04:26:36;;;;;;;13.70;6.22;;;15.70;99.90;;;;;;5047638;28;20504;-83
2022/06/11 04:29:04;;;;;;;14.57;5.30;;;15.70;99.90;;;;;;5047522;28;20562;-84
2022/06/11 04:31:31;;;;;;;12.13;5.85;;;15.70;99.90;;;;;;5037083;28;20036;-83
2022/06/11 04:33:57;;;;;;;14.30;5.40;;;15.70;99.90;;;;;;5052551;28;20119;-84
2022/06/11 04:36:26;;;;;;;12.90;5.07;;;15.70;99.90;;;;;;5053822;28;20072;-84
2022/06/11 04:38:51;;;;;;;13.18;6.78;;;15.70;99.90;;;;;;5036353;28;20043;-84
2022/06/11 04:41:18;;;;;;;13.43;6.75;;;15.70;99.90;;;;;;5035779;28;20049;-83
2022/06/11 04:43:43;;;;;;;13.52;5.68;;;15.80;99.90;;;;;;5037060;28;20040;-83
2022/06/11 04:46:10;;;;;;;14.52;7.75;;;15.80;99.90;;;;;;5036324;28;20045;-83
2022/06/11 04:48:36;;;;;;;13.95;6.68;;;15.80;99.90;;;;;;5036629;28;20043;-83
2022/06/11 04:51:02;;;;;;;14.30;7.72;;;15.80;99.90;;;;;;5052636;28;20508;-83
2022/06/11 04:53:30;;;;;;;14.23;7.82;;;15.80;99.90;;;;;;5052922;28;20070;-83
2022/06/11 04:55:56;;;;;;;14.30;6.47;;;15.90;99.90;;;;;;5052552;28;20041;-83
2022/06/11 04:58:22;;;;;;;13.07;7.80;;;15.90;99.90;;;;;;5036063;28;20036;-83
2022/06/11 05:00:48;;;;;;;11.00;6.20;;;15.90;99.90;;;;;;5051872;28;20063;-83
2022/06/11 05:03:14;;;;;;;15.63;8.10;;;15.90;99.90;;;;;;5052588;28;20489;-83
2022/06/11 05:05:40;;;;;;;14.70;7.93;;;16.00;99.90;;;;;;5053433;28;20048;-84
2022/06/11 05:08:06;;;;;;;13.48;8.23;;;16.00;99.90;;;;;;5036667;28;20036;-83
2022/06/11 05:10:36;;;;;;;13.13;6.50;;;16.10;99.90;;;;;;5051849;28;20048;-84
2022/06/11 05:13:03;;;;;;;17.27;7.68;;;16.00;99.90;;;;;;5053427;28;20112;-83
2022/06/11 05:15:29;;;;;;;13.40;7.43;;;16.10;99.90;;;;;;5036575;28;20032;-84
2022/06/11 05:17:55;;;;;;;13.98;7.07;;;16.10;99.90;;;;;;5052756;28;20499;-84
2022/06/11 05:20:21;;;;;;;12.52;7.68;;;16.20;99.90;;;;;;5036552;28;20060;-84
2022/06/11 05:22:47;;;;;;;11.55;6.55;;;16.20;99.90;;;;;;5052523;28;20493;-84
2022/06/11 05:25:15;;;;;;;13.85;5.60;;;16.20;99.90;;;;;;5036571;28;20045;-83
2022/06/11 05:27:42;;;;;;;13.95;7.85;;;16.20;99.90;;;;;;5053183;28;20378;-84
2022/06/11 05:30:30;;;;;;;13.02;7.18;;;16.20;99.90;;;;;;5052466;28;20506;-84
2022/06/11 05:32:56;;;;;;;12.63;6.20;;;16.30;99.90;;;;;;5052845;28;20409;-84
2022/06/11 05:35:25;;;;;;;15.35;7.68;;;16.30;99.90;;;;;;5052695;28;20467;-83
2022/06/11 05:37:53;;;;;;;13.82;7.38;;;16.30;99.90;;;;;;5050007;28;20044;-84
2022/06/11 05:40:24;;;;;;;13.73;7.30;;;16.40;99.90;;;;;;5050919;28;20412;-84
2022/06/11 05:42:49;;;;;;;14.82;5.70;;;16.40;99.90;;;;;;5064715;28;20036;-84
2022/06/11 05:45:18;;;;;;;15.43;7.53;;;16.40;99.90;;;;;;5076217;28;20044;-84
2022/06/11 05:47:46;;;;;;;17.40;7.07;;;16.40;99.90;;;;;;5060078;28;20558;-83
2022/06/11 05:50:18;;;;;;;14.50;5.55;;;16.50;99.90;;;;;;5040233;28;20040;-84
2022/06/11 05:52:45;;;;;;;13.05;5.35;;;16.50;99.90;;;;;;5056148;28;20039;-84
2022/06/11 05:55:25;;;;;;;12.52;5.80;;;16.50;99.90;;;;;;5055103;28;20068;-84
2022/06/11 05:57:52;;;;;;;17.13;6.20;;;16.50;99.90;;;;;;5039743;28;20040;-84
2022/06/11 06:00:21;;;;;;;15.75;5.88;;;16.60;99.90;;;;;;5038841;28;20078;-84
2022/06/11 06:02:47;;;;;;;13.50;5.85;;;16.60;99.90;;;;;;5056216;28;20498;-83
2022/06/11 06:05:16;;;;;;;17.98;5.53;;;16.60;99.90;;;;;;5039347;28;20148;-84
2022/06/11 06:07:42;;;;;;;15.80;6.50;;;16.70;99.90;;;;;;5039727;28;20059;-84
2022/06/11 06:10:08;;;;;;;18.20;6.07;;;16.70;99.90;;;;;;5055556;28;20036;-84
2022/06/11 06:12:35;;;;;;;14.50;5.07;;;16.70;99.90;;;;;;5039188;28;20036;-84
2022/06/11 06:15:22;;;;;;;16.88;5.70;;;16.70;99.90;;;;;;5055942;28;20036;-84
2022/06/11 06:17:49;;;;;;;18.08;6.32;;;16.80;99.90;;;;;;5055693;28;20121;-84
2022/06/11 06:20:16;;;;;;;14.02;4.93;;;16.80;99.90;;;;;;5038841;28;20036;-83
2022/06/11 06:22:43;;;;;;;17.52;5.95;;;16.80;99.90;;;;;;5039547;28;20040;-84
2022/06/11 06:25:12;;;;;;;18.85;7.00;;;16.80;99.90;;;;;;5054709;28;20082;-84
2022/06/11 06:27:37;;;;;;;16.67;6.15;;;16.90;99.90;;;;;;5055761;28;20044;-84
2022/06/11 06:30:05;;;;;;;22.38;5.85;;;17.00;99.90;;;;;;5038998;28;20042;-84
2022/06/11 06:32:30;;;;;;;18.33;5.75;;;17.00;99.90;;;;;;5055342;28;20391;-84
2022/06/11 06:34:57;;;;;;;16.42;5.30;;;17.00;99.90;;;;;;5042410;28;20553;-84
2022/06/11 06:37:23;;;;;;;17.23;5.60;;;17.10;99.90;;;;;;5064141;28;20039;-84
2022/06/11 06:39:48;;;;;;;17.17;5.30;;;17.10;99.90;;;;;;5061314;28;20452;-84
2022/06/11 06:42:14;;;;;;;15.23;5.60;;;17.10;99.90;;;;;;5072125;28;20040;-84
2022/06/11 06:44:39;;;;;;;18.92;5.70;;;17.10;99.90;;;;;;5056253;28;20547;-84
2022/06/11 06:47:05;;;;;;;18.05;5.75;;;17.10;99.90;;;;;;5055200;28;20036;-84
2022/06/11 06:49:31;;;;;;;17.30;5.75;;;17.20;99.90;;;;;;5054621;28;20047;-85
2022/06/11 06:51:56;;;;;;;21.00;6.30;;;17.30;99.90;;;;;;5055555;28;20048;-84
2022/06/11 06:54:22;;;;;;;16.75;5.47;;;17.30;99.90;;;;;;5053957;28;20041;-84
2022/06/11 06:56:48;;;;;;;18.75;5.03;;;17.30;99.90;;;;;;5055391;28;20083;-84
2022/06/11 06:59:14;;;;;;;18.67;4.85;;;17.30;99.90;;;;;;5055318;28;20048;-84
2022/06/11 07:01:40;;;;;;;19.15;6.13;;;17.30;99.90;;;;;;5038534;28;20052;-84
2022/06/11 07:04:06;;;;;;;20.92;6.72;;;17.40;99.90;;;;;;5055716;28;20393;-84
2022/06/11 07:06:34;;;;;;;18.48;4.65;;;17.50;99.90;;;;;;5055147;28;20505;-84
2022/06/11 07:09:00;;;;;;;19.90;6.03;;;17.50;99.90;;;;;;5054697;28;20044;-84
2022/06/11 07:11:25;;;;;;;20.63;5.88;;;17.60;99.90;;;;;;5055443;28;20046;-84
2022/06/11 07:13:51;;;;;;;19.52;5.68;;;17.60;99.90;;;;;;5054949;28;20119;-84
2022/06/11 07:16:21;;;;;;;18.83;6.30;;;17.70;99.90;;;;;;5055651;28;20090;-84
2022/06/11 07:18:52;;;;;;;25.23;6.60;;;17.70;99.90;;;;;;5055511;28;20386;-84
2022/06/11 07:21:21;;;;;;;20.08;5.55;;;17.70;99.90;;;;;;5054741;28;20051;-84
2022/06/11 07:23:52;;;;;;;23.13;6.43;;;17.80;99.90;;;;;;5038530;28;20619;-84
2022/06/11 07:26:20;;;;;;;23.52;6.43;;;17.80;99.90;;;;;;5054973;28;20051;-84
2022/06/11 07:28:52;;;;;;;21.50;6.28;;;17.80;99.90;;;;;;5055042;28;20032;-84
2022/06/11 07:31:18;;;;;;;21.55;5.15;;;17.80;99.90;;;;;;5054948;28;20683;-84
2022/06/11 07:33:44;;;;;;;25.73;5.78;;;17.90;99.90;;;;;;5037555;28;20043;-84
2022/06/11 07:36:12;;;;;;;20.83;5.90;;;17.90;99.90;;;;;;5038629;28;20036;-84
2022/06/11 07:38:38;;;;;;;21.02;6.18;;;18.00;99.90;;;;;;5044804;28;20055;-84
2022/06/11 07:41:03;;;;;;;19.83;6.10;;;18.00;99.90;;;;;;5054745;28;20040;-84
2022/06/11 07:43:31;;;;;;;24.67;5.68;;;18.10;99.90;;;;;;5055175;28;20113;-84
2022/06/11 07:45:56;;;;;;;18.65;5.80;;;18.10;99.90;;;;;;5037206;28;20044;-84
2022/06/11 07:48:22;;;;;;;22.63;6.13;;;18.10;99.90;;;;;;5038078;28;20036;-84
2022/06/11 07:50:50;;;;;;;20.13;5.95;;;18.20;99.90;;;;;;5063704;28;20040;-84
2022/06/11 07:53:18;;;;;;;24.65;6.68;;;18.30;99.90;;;;;;5043218;28;20033;-84
2022/06/11 07:55:46;;;;;;;20.85;6.38;;;18.30;99.90;;;;;;5054521;28;20047;-84
2022/06/11 07:58:14;;;;;;;18.95;6.28;;;18.40;99.90;;;;;;5053462;28;20385;-83
2022/06/11 08:00:45;;;;;;;21.10;6.70;;;18.50;99.90;;;;;;5036497;28;20453;-84
2022/06/11 08:03:11;;;;;;;21.40;6.78;;;18.60;99.90;;;;;;5054389;28;20118;-84
2022/06/11 08:05:37;;;;;;;21.67;6.20;;;18.50;99.90;;;;;;5053139;28;20487;-84
2022/06/11 08:08:07;;;;;;;23.73;5.70;;;18.60;99.90;;;;;;5053931;28;20094;-84
2022/06/11 08:10:34;;;;;;;22.88;6.40;;;18.60;99.90;;;;;;5052631;28;20041;-84
2022/06/11 08:12:59;;;;;;;20.05;5.90;;;18.70;99.90;;;;;;5054373;28;20421;-84
2022/06/11 08:15:25;;;;;;;17.88;5.85;;;18.80;99.90;;;;;;5037268;28;20042;-84
2022/06/11 08:17:51;;;;;;;23.40;5.93;;;18.90;99.90;;;;;;5053041;28;20405;-84
2022/06/11 08:20:29;;;;;;;20.77;5.78;;;18.90;99.90;;;;;;5053566;28;20049;-84
2022/06/11 08:22:55;;;;;;;23.65;5.90;;;19.00;99.90;;;;;;5052586;28;20043;-84
2022/06/11 08:25:22;;;;;;;23.17;6.35;;;18.90;99.90;;;;;;5053951;28;20040;-84
2022/06/11 08:27:49;;;;;;;20.80;5.80;;;18.90;99.90;;;;;;5036571;28;20041;-84
2022/06/11 08:30:18;;;;;;;22.70;6.20;;;19.00;99.90;;;;;;5035967;28;20072;-85
2022/06/11 08:32:44;;;;;;;22.75;5.60;;;19.00;99.90;;;;;;5054064;28;20036;-85
2022/06/11 08:35:11;;;;;;;20.83;6.13;;;19.20;99.90;;;;;;5052846;28;20051;-84
2022/06/11 08:37:37;;;;;;;22.20;6.20;;;19.20;99.90;;;;;;5036518;28;20040;-85
2022/06/11 08:40:10;;;;;;;21.25;6.50;;;19.20;99.90;;;;;;5051414;28;20036;-84
2022/06/11 08:42:38;;;;;;;20.60;5.60;;;19.20;99.90;;;;;;5037123;28;20040;-84
2022/06/11 08:45:17;;;;;;;22.48;5.80;;;19.30;99.90;;;;;;5052860;28;20182;-84
2022/06/11 08:47:51;;;;;;;21.77;5.85;;;19.30;99.90;;;;;;5053883;28;20045;-84
2022/06/11 08:50:44;;;;;;;19.90;6.07;;;19.40;99.90;;;;;;5036575;28;20060;-85
2022/06/11 08:53:10;;;;;;;23.85;6.68;;;19.50;99.90;;;;;;5033613;28;20103;-84
2022/06/11 08:55:37;;;;;;;21.60;5.90;;;19.60;99.90;;;;;;5033715;28;20048;-85
2022/06/11 08:58:27;;;;;;;20.23;5.68;;;19.80;99.90;;;;;;5045600;28;20044;-84
2022/06/11 09:01:07;;;;;;;22.05;6.00;;;19.80;99.90;;;;;;5051605;28;20045;-84
2022/06/11 09:04:14;;;;;;;20.88;6.03;;;19.70;99.90;;;;;;5053967;28;20048;-85
2022/06/11 09:06:53;;;;;;;20.08;5.95;;;19.50;99.90;;;;;;5036922;28;20137;-85
2022/06/11 09:09:30;;;;;;;16.60;5.07;;;19.40;99.90;;;;;;5035016;28;20052;-84
2022/06/11 09:12:05;;;;;;;23.67;6.40;;;19.50;99.90;;;;;;5053390;28;20036;-84
2022/06/11 09:14:55;;;;;;;19.52;5.35;;;19.60;99.90;;;;;;5052911;28;20028;-85
2022/06/11 09:17:32;;;;;;;20.15;5.32;;;19.50;99.90;;;;;;5053216;28;20094;-84
2022/06/11 09:20:15;;;;;;;19.60;5.50;;;19.50;99.90;;;;;;5032631;28;20033;-84
2022/06/11 09:23:08;;;;;;;22.27;5.53;;;19.50;99.90;;;;;;5048026;28;20028;-84
2022/06/11 09:26:02;;;;;;;17.80;5.38;;;19.50;99.90;;;;;;5042582;28;20072;-84
2022/06/11 09:28:40;;;;;;;20.75;5.47;;;19.50;99.90;;;;;;5054566;28;20063;-84
2022/06/11 09:31:06;;;;;;;18.67;4.90;;;19.50;99.90;;;;;;5066945;28;20044;-85
2022/06/11 09:33:59;;;;;;;20.20;5.93;;;19.60;99.90;;;;;;5057062;28;20516;-84
2022/06/11 09:36:34;;;;;;;18.92;5.40;;;19.80;99.90;;;;;;5065325;28;20036;-85
2022/06/11 09:39:03;;;;;;;20.17;5.38;;;19.80;99.90;;;;;;5037050;28;20043;-84
2022/06/11 09:42:08;;;;;;;19.23;5.53;;;19.90;99.90;;;;;;5051058;28;20051;-84
2022/06/11 09:44:40;;;;;;;20.85;5.22;;;19.90;99.90;;;;;;5048611;28;20066;-84
2022/06/11 09:47:30;;;;;;;20.42;5.07;;;20.00;99.90;;;;;;5050582;28;20474;-84
2022/06/11 09:50:29;;;;;;;24.10;5.80;;;20.10;99.90;;;;;;5034351;28;20124;-84
2022/06/11 09:53:28;;;;;;;20.23;5.43;;;20.20;99.90;;;;;;5050434;28;20037;-84
2022/06/11 09:56:07;;;;;;;21.83;5.38;;;20.10;99.90;;;;;;5034938;28;20508;-84
2022/06/11 09:58:52;;;;;;;19.30;5.05;;;20.00;99.90;;;;;;5050187;28;20097;-84
2022/06/11 10:01:23;;;;;;;16.00;4.43;;;20.00;99.90;;;;;;5052048;28;20040;-84
2022/06/11 10:03:56;;;;;;;19.93;5.17;;;20.20;99.90;;;;;;5051807;28;20041;-84
2022/06/11 10:06:37;;;;;;;20.75;4.53;;;20.30;99.90;;;;;;5052999;28;20528;-85
2022/06/11 10:09:09;;;;;;;18.75;4.63;;;20.40;99.90;;;;;;5036041;28;20044;-84
2022/06/11 10:11:57;;;;;;;18.88;4.88;;;20.50;99.90;;;;;;5035889;28;20072;-84
2022/06/11 10:14:43;;;;;;;17.15;4.63;;;20.70;99.90;;;;;;5052175;28;20601;-85
2022/06/11 10:17:27;;;;;;;14.65;3.90;;;20.70;99.90;;;;;;5042213;28;20045;-84
2022/06/11 10:20:11;;;;;;;15.88;4.18;;;20.70;99.90;;;;;;5052139;28;20040;-84
2022/06/11 10:23:02;;;;;;;15.02;4.15;;;20.70;99.90;;;;;;5053446;28;20090;-84
2022/06/11 10:25:50;;;;;;;13.95;4.03;;;20.70;99.90;;;;;;5056834;28;20071;-84
2022/06/11 10:28:25;;;;;;;15.68;4.15;;;20.80;99.90;;;;;;5039172;28;20060;-84
2022/06/11 10:30:59;;;;;;;16.50;4.93;;;20.80;99.90;;;;;;5055987;28;20032;-84
2022/06/11 10:33:49;;;;;;;18.48;4.88;;;20.80;99.90;;;;;;5039423;28;20113;-84
2022/06/11 10:36:34;;;;;;;15.55;4.07;;;20.90;99.90;;;;;;5036343;28;20090;-84
2022/06/11 10:39:11;;;;;;;16.83;3.80;;;21.00;99.90;;;;;;5024435;28;20675;-84
2022/06/11 10:41:52;;;;;;;16.92;3.95;;;21.10;99.90;;;;;;5039446;28;20044;-84
2022/06/11 10:44:27;;;;;;;15.73;4.22;;;21.20;99.90;;;;;;5055433;28;20448;-84
2022/06/11 10:46:52;;;;;;;14.65;4.15;;;21.30;98.90;;;;;;5038968;28;20052;-84
2022/06/11 10:49:22;;;;;;;17.23;4.03;;;21.30;99.90;;;;;;5055741;28;20039;-84
2022/06/11 10:51:56;;;;;;;16.02;4.75;;;21.40;99.90;;;;;;5055115;28;20576;-84
2022/06/11 10:54:24;;;;;;;15.30;4.22;;;21.50;99.90;;;;;;5036066;28;20059;-84
2022/06/11 10:56:54;;;;;;;17.67;4.20;;;21.60;99.90;;;;;;5035962;28;20139;-84
2022/06/11 10:59:30;;;;;;;17.95;3.85;;;21.60;99.50;;;;;;5035367;28;20036;-84
2022/06/11 11:02:11;;;;;;;13.60;3.80;;;21.70;99.90;;;;;;5039368;28;20041;-84
2022/06/11 11:04:52;;;;;;;14.15;4.10;;;21.80;96.70;;;;;;5038512;28;20085;-84
2022/06/11 11:07:20;;;;;;;18.10;4.78;;;21.80;97.20;;;;;;5039167;28;20032;-84
2022/06/11 11:09:46;;;;;;;13.85;3.42;;;21.90;97.50;;;;;;5038464;28;20040;-84
2022/06/11 11:12:29;;;;;;;14.80;3.70;;;21.90;96.40;;;;;;5019297;28;20041;-84
2022/06/11 11:15:11;;;;;;;14.15;3.45;;;22.00;97.60;;;;;;5035583;28;20037;-84
2022/06/11 11:17:48;;;;;;;13.40;3.67;;;22.00;95.20;;;;;;5030936;28;20047;-84
2022/06/11 11:20:34;;;;;;;15.05;3.70;;;22.10;94.60;;;;;;5055355;28;20036;-84
2022/06/11 11:23:09;;;;;;;15.00;3.97;;;22.20;97.00;;;;;;5038199;28;20040;-84
2022/06/11 11:25:52;;;;;;;13.85;4.05;;;22.10;94.90;;;;;;5035770;28;20100;-84
2022/06/11 11:28:28;;;;;;;16.20;3.88;;;22.10;96.80;;;;;;5027041;28;20044;-84
2022/06/11 11:31:00;;;;;;;17.02;4.15;;;22.10;96.70;;;;;;5038426;28;20068;-84
2022/06/11 11:33:36;;;;;;;13.83;3.80;;;22.20;98.00;;;;;;5053754;28;20036;-84
2022/06/11 11:36:17;;;;;;;15.50;3.58;;;22.30;96.00;;;;;;5054887;28;20405;-84
2022/06/11 11:38:43;;;;;;;15.15;3.50;;;22.20;95.80;;;;;;5055166;28;20040;-84
2022/06/11 11:41:25;;;;;;;14.93;3.65;;;22.30;95.90;;;;;;5053860;28;20039;-84
2022/06/11 11:43:51;;;;;;;17.10;4.10;;;22.40;97.10;;;;;;5037766;28;20041;-84
2022/06/11 11:46:22;;;;;;;16.08;4.18;;;22.50;94.30;;;;;;5054331;28;20051;-84
2022/06/11 11:48:52;;;;;;;16.60;3.75;;;22.50;87.00;;;;;;5055073;28;20094;-84
2022/06/11 11:51:32;;;;;;;16.35;3.90;;;22.40;93.60;;;;;;5054090;28;20033;-84
2022/06/11 11:53:59;;;;;;;16.73;4.00;;;22.30;93.50;;;;;;5038378;28;20500;-84
2022/06/11 11:56:28;;;;;;;12.48;3.55;;;22.30;93.80;;;;;;5054551;28;20095;-84
2022/06/11 11:59:22;;;;;;;15.88;3.67;;;22.40;93.60;;;;;;5054023;28;20127;-84
2022/06/11 12:01:51;;;;;;;15.43;4.10;;;22.50;96.40;;;;;;5051464;28;20060;-84
2022/06/11 12:04:18;;;;;;;13.00;3.97;;;22.60;93.10;;;;;;5036875;28;20127;-84
2022/06/11 12:07:05;;;;;;;14.18;3.70;;;22.70;96.70;;;;;;5037732;28;20044;-84
2022/06/11 12:09:49;;;;;;;15.00;4.25;;;22.80;95.90;;;;;;5053809;28;20052;-84
2022/06/11 12:12:28;;;;;;;17.35;3.97;;;22.70;92.30;;;;;;5047431;28;20037;-84
2022/06/11 12:15:00;;;;;;;16.10;3.90;;;22.70;92.40;;;;;;5037904;28;20134;-84
2022/06/11 12:17:56;;;;;;;16.27;3.75;;;22.80;93.40;;;;;;5053712;28;20439;-84
2022/06/11 12:20:41;;;;;;;13.15;3.47;;;23.00;92.50;;;;;;5053500;28;20460;-84
2022/06/11 12:23:27;;;;;;;13.30;3.85;;;23.00;89.70;;;;;;5053701;28;20051;-84
2022/06/11 12:26:03;;;;;;;15.50;3.78;;;23.00;87.80;;;;;;5062240;28;20040;-84
2022/06/11 12:29:06;;;;;;;13.80;4.10;;;22.90;80.40;;;;;;5074964;28;20509;-84
2022/06/11 12:31:33;;;;;;;14.43;3.50;;;22.80;83.70;;;;;;5044977;28;20106;-84
2022/06/11 12:34:01;;;;;;;14.07;4.05;;;22.80;87.50;;;;;;5053508;28;20564;-84
2022/06/11 12:36:45;;;;;;;14.52;3.75;;;22.80;78.60;;;;;;5053966;28;20044;-84
2022/06/11 12:39:39;;;;;;;17.73;3.97;;;22.80;83.30;;;;;;5053368;28;20123;-83
2022/06/11 12:42:04;;;;;;;14.30;3.80;;;23.00;89.00;;;;;;5036391;28;20048;-84
2022/06/11 12:44:47;;;;;;;14.23;4.35;;;23.10;92.30;;;;;;5036986;28;20162;-84
2022/06/11 12:47:47;;;;;;;16.23;3.88;;;23.30;92.90;;;;;;5036517;28;20040;-84
2022/06/11 12:50:45;;;;;;;22.15;4.50;;;23.30;90.90;;;;;;5052842;28;20098;-84
2022/06/11 12:53:44;;;;;;;15.70;3.47;;;23.50;96.70;;;;;;5053264;28;20094;-84
2022/06/11 12:56:46;;;;;;;15.85;3.80;;;23.60;88.80;;;;;;5048885;28;20048;-82
2022/06/11 12:59:33;;;;;;;16.50;4.25;;;23.70;90.70;;;;;;5022663;28;20493;-84
2022/06/11 13:02:17;;;;;;;14.90;4.07;;;23.60;91.00;;;;;;5050974;28;20044;-84
2022/06/11 13:05:03;;;;;;;13.82;3.80;;;23.50;82.30;;;;;;5036031;28;20056;-84
2022/06/11 13:07:52;;;;;;;14.60;3.85;;;23.40;82.10;;;;;;5053806;28;20401;-84